sensor_id;sensor_type;location;lat;lon;timestamp;P1;durP1;ratioP1;P2;durP2;ratioP2
4345;SDS011;2186;49.866;7.986;2022-08-20T00:00:57;1.23;;;1.23;;
4345;SDS011;2186;49.866;7.986;2022-08-20T00:03:31;0.90;;;0.70;;
4345;SDS011;2186;49.866;7.986;2022-08-20T00:06:05;0.80;;;0.57;;
4345;SDS011;2186;49.866;7.986;2022-08-20T00:08:35;1.67;;;0.73;;
4345;SDS011;2186;49.866;7.986;2022-08-20T00:11:04;0.90;;;0.80;;
4345;SDS011;2186;49.866;7.986;2022-08-20T00:13:39;1.20;;;0.90;;
4345;SDS011;2186;49.866;7.986;2022-08-20T00:16:09;3.90;;;0.80;;
4345;SDS011;2186;49.866;7.986;2022-08-20T00:18:38;11.83;;;1.80;;
4345;SDS011;2186;49.866;7.986;2022-08-20T00:21:05;0.67;;;0.60;;
4345;SDS011;2186;49.866;7.986;2022-08-20T00:23:37;0.80;;;0.77;;
4345;SDS011;2186;49.866;7.986;2022-08-20T00:26:05;0.83;;;0.83;;
4345;SDS011;2186;49.866;7.986;2022-08-20T00:28:32;1.10;;;0.80;;
4345;SDS011;2186;49.866;7.986;2022-08-20T00:31:01;0.70;;;0.50;;
4345;SDS011;2186;49.866;7.986;2022-08-20T00:33:30;2.20;;;0.83;;
4345;SDS011;2186;49.866;7.986;2022-08-20T00:35:57;0.87;;;0.67;;
4345;SDS011;2186;49.866;7.986;2022-08-20T00:38:24;0.60;;;0.50;;
4345;SDS011;2186;49.866;7.986;2022-08-20T00:40:52;0.60;;;0.40;;
4345;SDS011;2186;49.866;7.986;2022-08-20T00:43:35;1.30;;;0.63;;
4345;SDS011;2186;49.866;7.986;2022-08-20T00:46:08;2.17;;;0.90;;
4345;SDS011;2186;49.866;7.986;2022-08-20T00:48:42;1.60;;;0.57;;
4345;SDS011;2186;49.866;7.986;2022-08-20T00:51:22;0.90;;;0.50;;
4345;SDS011;2186;49.866;7.986;2022-08-20T00:54:02;0.60;;;0.50;;
4345;SDS011;2186;49.866;7.986;2022-08-20T00:56:45;0.93;;;0.70;;
4345;SDS011;2186;49.866;7.986;2022-08-20T00:59:17;0.83;;;0.60;;
4345;SDS011;2186;49.866;7.986;2022-08-20T01:01:48;1.00;;;0.60;;
4345;SDS011;2186;49.866;7.986;2022-08-20T01:04:22;1.37;;;0.60;;
4345;SDS011;2186;49.866;7.986;2022-08-20T01:06:50;0.67;;;0.43;;
4345;SDS011;2186;49.866;7.986;2022-08-20T01:09:17;0.60;;;0.53;;
4345;SDS011;2186;49.866;7.986;2022-08-20T01:12:04;0.60;;;0.40;;
4345;SDS011;2186;49.866;7.986;2022-08-20T01:14:32;0.80;;;0.80;;
4345;SDS011;2186;49.866;7.986;2022-08-20T01:17:00;0.60;;;0.50;;
4345;SDS011;2186;49.866;7.986;2022-08-20T01:19:32;0.80;;;0.70;;
4345;SDS011;2186;49.866;7.986;2022-08-20T01:22:04;0.80;;;0.60;;
4345;SDS011;2186;49.866;7.986;2022-08-20T01:24:54;0.73;;;0.60;;
4345;SDS011;2186;49.866;7.986;2022-08-20T01:27:26;0.63;;;0.43;;
4345;SDS011;2186;49.866;7.986;2022-08-20T01:29:56;0.80;;;0.70;;
4345;SDS011;2186;49.866;7.986;2022-08-20T01:32:22;1.10;;;0.90;;
4345;SDS011;2186;49.866;7.986;2022-08-20T01:34:49;0.60;;;0.50;;
4345;SDS011;2186;49.866;7.986;2022-08-20T01:37:15;0.70;;;0.47;;
4345;SDS011;2186;49.866;7.986;2022-08-20T01:39:42;0.63;;;0.60;;
4345;SDS011;2186;49.866;7.986;2022-08-20T01:42:28;2.60;;;0.80;;
4345;SDS011;2186;49.866;7.986;2022-08-20T01:45:22;0.80;;;0.63;;
4345;SDS011;2186;49.866;7.986;2022-08-20T01:47:53;0.60;;;0.50;;
4345;SDS011;2186;49.866;7.986;2022-08-20T01:50:22;0.77;;;0.60;;
4345;SDS011;2186;49.866;7.986;2022-08-20T01:52:54;0.70;;;0.60;;
4345;SDS011;2186;49.866;7.986;2022-08-20T01:55:22;0.70;;;0.50;;
4345;SDS011;2186;49.866;7.986;2022-08-20T01:57:49;0.87;;;0.60;;
4345;SDS011;2186;49.866;7.986;2022-08-20T02:00:16;0.70;;;0.53;;
4345;SDS011;2186;49.866;7.986;2022-08-20T02:02:45;0.60;;;0.50;;
4345;SDS011;2186;49.866;7.986;2022-08-20T02:05:11;1.27;;;0.70;;
4345;SDS011;2186;49.866;7.986;2022-08-20T02:07:38;0.60;;;0.40;;
4345;SDS011;2186;49.866;7.986;2022-08-20T02:10:05;2.70;;;0.57;;
4345;SDS011;2186;49.866;7.986;2022-08-20T02:12:33;0.90;;;0.63;;
4345;SDS011;2186;49.866;7.986;2022-08-20T02:15:00;0.73;;;0.50;;
4345;SDS011;2186;49.866;7.986;2022-08-20T02:17:26;1.87;;;0.57;;
4345;SDS011;2186;49.866;7.986;2022-08-20T02:19:54;0.80;;;0.50;;
4345;SDS011;2186;49.866;7.986;2022-08-20T02:22:29;1.07;;;0.70;;
4345;SDS011;2186;49.866;7.986;2022-08-20T02:25:03;0.70;;;0.50;;
4345;SDS011;2186;49.866;7.986;2022-08-20T02:27:31;0.80;;;0.50;;
4345;SDS011;2186;49.866;7.986;2022-08-20T02:29:58;0.60;;;0.53;;
4345;SDS011;2186;49.866;7.986;2022-08-20T02:32:24;0.90;;;0.50;;
4345;SDS011;2186;49.866;7.986;2022-08-20T02:35:00;0.70;;;0.40;;
4345;SDS011;2186;49.866;7.986;2022-08-20T02:37:29;0.70;;;0.43;;
4345;SDS011;2186;49.866;7.986;2022-08-20T02:39:56;1.37;;;0.70;;
4345;SDS011;2186;49.866;7.986;2022-08-20T02:42:22;0.60;;;0.40;;
4345;SDS011;2186;49.866;7.986;2022-08-20T02:44:49;1.10;;;0.70;;
4345;SDS011;2186;49.866;7.986;2022-08-20T02:47:15;0.70;;;0.50;;
4345;SDS011;2186;49.866;7.986;2022-08-20T02:49:42;1.93;;;1.03;;
4345;SDS011;2186;49.866;7.986;2022-08-20T02:52:08;0.80;;;0.50;;
4345;SDS011;2186;49.866;7.986;2022-08-20T02:54:35;0.73;;;0.53;;
4345;SDS011;2186;49.866;7.986;2022-08-20T02:57:02;0.60;;;0.40;;
4345;SDS011;2186;49.866;7.986;2022-08-20T02:59:29;0.70;;;0.50;;
4345;SDS011;2186;49.866;7.986;2022-08-20T03:01:56;1.57;;;0.77;;
4345;SDS011;2186;49.866;7.986;2022-08-20T03:04:27;0.60;;;0.40;;
4345;SDS011;2186;49.866;7.986;2022-08-20T03:06:56;1.47;;;0.50;;
4345;SDS011;2186;49.866;7.986;2022-08-20T03:09:23;0.80;;;0.50;;
4345;SDS011;2186;49.866;7.986;2022-08-20T03:11:50;0.70;;;0.53;;
4345;SDS011;2186;49.866;7.986;2022-08-20T03:14:17;0.60;;;0.40;;
4345;SDS011;2186;49.866;7.986;2022-08-20T03:16:44;0.60;;;0.40;;
4345;SDS011;2186;49.866;7.986;2022-08-20T03:19:10;0.67;;;0.47;;
4345;SDS011;2186;49.866;7.986;2022-08-20T03:21:39;0.60;;;0.40;;
4345;SDS011;2186;49.866;7.986;2022-08-20T03:24:05;0.60;;;0.60;;
4345;SDS011;2186;49.866;7.986;2022-08-20T03:26:32;0.50;;;0.30;;
4345;SDS011;2186;49.866;7.986;2022-08-20T03:28:58;0.60;;;0.50;;
4345;SDS011;2186;49.866;7.986;2022-08-20T03:31:25;0.60;;;0.50;;
4345;SDS011;2186;49.866;7.986;2022-08-20T03:33:51;0.60;;;0.50;;
4345;SDS011;2186;49.866;7.986;2022-08-20T03:36:19;0.70;;;0.40;;
4345;SDS011;2186;49.866;7.986;2022-08-20T03:38:57;0.60;;;0.40;;
4345;SDS011;2186;49.866;7.986;2022-08-20T03:41:25;1.33;;;1.00;;
4345;SDS011;2186;49.866;7.986;2022-08-20T03:43:53;0.50;;;0.40;;
4345;SDS011;2186;49.866;7.986;2022-08-20T03:46:20;0.70;;;0.60;;
4345;SDS011;2186;49.866;7.986;2022-08-20T03:48:49;0.60;;;0.40;;
4345;SDS011;2186;49.866;7.986;2022-08-20T03:51:25;0.50;;;0.30;;
4345;SDS011;2186;49.866;7.986;2022-08-20T03:53:53;0.60;;;0.40;;
4345;SDS011;2186;49.866;7.986;2022-08-20T03:56:20;0.70;;;0.50;;
4345;SDS011;2186;49.866;7.986;2022-08-20T03:58:46;1.63;;;0.80;;
4345;SDS011;2186;49.866;7.986;2022-08-20T04:01:13;0.50;;;0.30;;
4345;SDS011;2186;49.866;7.986;2022-08-20T04:03:59;0.60;;;0.30;;
4345;SDS011;2186;49.866;7.986;2022-08-20T04:06:26;0.77;;;0.53;;
4345;SDS011;2186;49.866;7.986;2022-08-20T04:08:54;0.60;;;0.60;;
4345;SDS011;2186;49.866;7.986;2022-08-20T04:11:21;4.27;;;0.73;;
4345;SDS011;2186;49.866;7.986;2022-08-20T04:13:49;0.93;;;0.70;;
4345;SDS011;2186;49.866;7.986;2022-08-20T04:16:16;1.00;;;0.87;;
4345;SDS011;2186;49.866;7.986;2022-08-20T04:18:44;4.10;;;0.60;;
4345;SDS011;2186;49.866;7.986;2022-08-20T04:21:28;6.83;;;1.13;;
4345;SDS011;2186;49.866;7.986;2022-08-20T04:23:59;0.90;;;0.70;;
4345;SDS011;2186;49.866;7.986;2022-08-20T04:26:27;0.70;;;0.60;;
4345;SDS011;2186;49.866;7.986;2022-08-20T04:28:54;1.03;;;0.93;;
4345;SDS011;2186;49.866;7.986;2022-08-20T04:31:21;0.90;;;0.80;;
4345;SDS011;2186;49.866;7.986;2022-08-20T04:33:50;0.70;;;0.70;;
4345;SDS011;2186;49.866;7.986;2022-08-20T04:36:17;0.67;;;0.60;;
4345;SDS011;2186;49.866;7.986;2022-08-20T04:38:43;0.80;;;0.50;;
4345;SDS011;2186;49.866;7.986;2022-08-20T04:41:16;1.20;;;0.77;;
4345;SDS011;2186;49.866;7.986;2022-08-20T04:43:48;0.70;;;0.50;;
4345;SDS011;2186;49.866;7.986;2022-08-20T04:46:16;0.70;;;0.70;;
4345;SDS011;2186;49.866;7.986;2022-08-20T04:48:42;0.60;;;0.53;;
4345;SDS011;2186;49.866;7.986;2022-08-20T04:51:15;0.63;;;0.60;;
4345;SDS011;2186;49.866;7.986;2022-08-20T04:53:43;0.80;;;0.60;;
4345;SDS011;2186;49.866;7.986;2022-08-20T04:56:17;5.23;;;0.90;;
4345;SDS011;2186;49.866;7.986;2022-08-20T04:58:49;0.80;;;0.70;;
4345;SDS011;2186;49.866;7.986;2022-08-20T05:01:17;1.10;;;0.53;;
4345;SDS011;2186;49.866;7.986;2022-08-20T05:03:44;9.30;;;0.90;;
4345;SDS011;2186;49.866;7.986;2022-08-20T05:06:12;1.43;;;1.33;;
4345;SDS011;2186;49.866;7.986;2022-08-20T05:08:39;0.90;;;0.70;;
4345;SDS011;2186;49.866;7.986;2022-08-20T05:11:05;0.93;;;0.83;;
4345;SDS011;2186;49.866;7.986;2022-08-20T05:13:54;1.10;;;1.00;;
4345;SDS011;2186;49.866;7.986;2022-08-20T05:16:20;1.53;;;1.43;;
4345;SDS011;2186;49.866;7.986;2022-08-20T05:18:49;0.80;;;0.70;;
4345;SDS011;2186;49.866;7.986;2022-08-20T05:21:18;1.27;;;1.17;;
4345;SDS011;2186;49.866;7.986;2022-08-20T05:23:45;2.23;;;1.67;;
4345;SDS011;2186;49.866;7.986;2022-08-20T05:26:12;1.20;;;1.10;;
4345;SDS011;2186;49.866;7.986;2022-08-20T05:28:40;0.77;;;0.70;;
4345;SDS011;2186;49.866;7.986;2022-08-20T05:31:24;1.83;;;1.10;;
4345;SDS011;2186;49.866;7.986;2022-08-20T05:33:59;1.13;;;1.03;;
4345;SDS011;2186;49.866;7.986;2022-08-20T05:36:35;1.67;;;1.57;;
4345;SDS011;2186;49.866;7.986;2022-08-20T05:39:05;1.97;;;1.87;;
4345;SDS011;2186;49.866;7.986;2022-08-20T05:41:33;1.10;;;0.90;;
4345;SDS011;2186;49.866;7.986;2022-08-20T05:44:00;1.73;;;1.27;;
4345;SDS011;2186;49.866;7.986;2022-08-20T05:46:27;1.80;;;1.57;;
4345;SDS011;2186;49.866;7.986;2022-08-20T05:48:56;0.93;;;0.83;;
4345;SDS011;2186;49.866;7.986;2022-08-20T05:51:25;3.33;;;1.20;;
4345;SDS011;2186;49.866;7.986;2022-08-20T05:53:51;2.90;;;1.80;;
4345;SDS011;2186;49.866;7.986;2022-08-20T05:56:18;2.10;;;2.00;;
4345;SDS011;2186;49.866;7.986;2022-08-20T05:58:51;16.87;;;2.13;;
4345;SDS011;2186;49.866;7.986;2022-08-20T06:01:18;1.37;;;0.90;;
4345;SDS011;2186;49.866;7.986;2022-08-20T06:03:49;8.97;;;0.97;;
4345;SDS011;2186;49.866;7.986;2022-08-20T06:06:34;1.87;;;1.77;;
4345;SDS011;2186;49.866;7.986;2022-08-20T06:09:12;0.97;;;0.90;;
4345;SDS011;2186;49.866;7.986;2022-08-20T06:11:57;2.97;;;1.70;;
4345;SDS011;2186;49.866;7.986;2022-08-20T06:14:24;0.90;;;0.90;;
4345;SDS011;2186;49.866;7.986;2022-08-20T06:16:51;0.80;;;0.73;;
4345;SDS011;2186;49.866;7.986;2022-08-20T06:19:24;2.03;;;1.33;;
4345;SDS011;2186;49.866;7.986;2022-08-20T06:21:51;2.43;;;1.87;;
4345;SDS011;2186;49.866;7.986;2022-08-20T06:24:19;1.63;;;1.53;;
4345;SDS011;2186;49.866;7.986;2022-08-20T06:26:46;1.37;;;1.20;;
4345;SDS011;2186;49.866;7.986;2022-08-20T06:29:12;3.07;;;1.20;;
4345;SDS011;2186;49.866;7.986;2022-08-20T06:31:40;1.07;;;0.90;;
4345;SDS011;2186;49.866;7.986;2022-08-20T06:34:07;1.37;;;1.27;;
4345;SDS011;2186;49.866;7.986;2022-08-20T06:36:33;1.40;;;1.30;;
4345;SDS011;2186;49.866;7.986;2022-08-20T06:39:00;1.50;;;1.40;;
4345;SDS011;2186;49.866;7.986;2022-08-20T06:41:26;1.20;;;1.10;;
4345;SDS011;2186;49.866;7.986;2022-08-20T06:44:02;1.17;;;1.07;;
4345;SDS011;2186;49.866;7.986;2022-08-20T06:46:29;0.77;;;0.73;;
4345;SDS011;2186;49.866;7.986;2022-08-20T06:48:57;1.37;;;1.27;;
4345;SDS011;2186;49.866;7.986;2022-08-20T06:51:24;1.00;;;0.90;;
4345;SDS011;2186;49.866;7.986;2022-08-20T06:53:50;1.07;;;0.80;;
4345;SDS011;2186;49.866;7.986;2022-08-20T06:56:16;1.20;;;1.00;;
4345;SDS011;2186;49.866;7.986;2022-08-20T06:58:43;0.93;;;0.83;;
4345;SDS011;2186;49.866;7.986;2022-08-20T07:01:10;0.80;;;0.80;;
4345;SDS011;2186;49.866;7.986;2022-08-20T07:03:38;1.70;;;1.30;;
4345;SDS011;2186;49.866;7.986;2022-08-20T07:06:20;1.80;;;1.03;;
4345;SDS011;2186;49.866;7.986;2022-08-20T07:08:47;1.23;;;1.10;;
4345;SDS011;2186;49.866;7.986;2022-08-20T07:11:13;4.57;;;1.33;;
4345;SDS011;2186;49.866;7.986;2022-08-20T07:13:40;1.30;;;1.13;;
4345;SDS011;2186;49.866;7.986;2022-08-20T07:16:07;1.07;;;0.97;;
4345;SDS011;2186;49.866;7.986;2022-08-20T07:18:33;28.93;;;1.77;;
4345;SDS011;2186;49.866;7.986;2022-08-20T07:21:00;1.70;;;1.60;;
4345;SDS011;2186;49.866;7.986;2022-08-20T07:23:26;1.83;;;1.13;;
4345;SDS011;2186;49.866;7.986;2022-08-20T07:25:53;0.77;;;0.70;;
4345;SDS011;2186;49.866;7.986;2022-08-20T07:28:22;2.37;;;0.80;;
4345;SDS011;2186;49.866;7.986;2022-08-20T07:30:50;0.80;;;0.67;;
4345;SDS011;2186;49.866;7.986;2022-08-20T07:33:39;0.90;;;0.73;;
4345;SDS011;2186;49.866;7.986;2022-08-20T07:36:06;0.80;;;0.60;;
4345;SDS011;2186;49.866;7.986;2022-08-20T07:38:34;0.93;;;0.70;;
4345;SDS011;2186;49.866;7.986;2022-08-20T07:41:03;1.40;;;1.30;;
4345;SDS011;2186;49.866;7.986;2022-08-20T07:43:35;0.70;;;0.60;;
4345;SDS011;2186;49.866;7.986;2022-08-20T07:46:02;1.27;;;0.57;;
4345;SDS011;2186;49.866;7.986;2022-08-20T07:48:35;0.60;;;0.53;;
4345;SDS011;2186;49.866;7.986;2022-08-20T07:51:05;0.87;;;0.83;;
4345;SDS011;2186;49.866;7.986;2022-08-20T07:53:35;0.80;;;0.73;;
4345;SDS011;2186;49.866;7.986;2022-08-20T07:56:04;1.33;;;0.90;;
4345;SDS011;2186;49.866;7.986;2022-08-20T07:58:33;0.83;;;0.63;;
4345;SDS011;2186;49.866;7.986;2022-08-20T08:01:02;0.70;;;0.60;;
4345;SDS011;2186;49.866;7.986;2022-08-20T08:03:30;0.70;;;0.50;;
4345;SDS011;2186;49.866;7.986;2022-08-20T08:06:14;8.50;;;0.50;;
4345;SDS011;2186;49.866;7.986;2022-08-20T08:08:53;1.43;;;0.70;;
4345;SDS011;2186;49.866;7.986;2022-08-20T08:11:20;1.63;;;1.33;;
4345;SDS011;2186;49.866;7.986;2022-08-20T08:13:47;0.70;;;0.40;;
4345;SDS011;2186;49.866;7.986;2022-08-20T08:16:14;0.83;;;0.70;;
4345;SDS011;2186;49.866;7.986;2022-08-20T08:18:42;0.60;;;0.40;;
4345;SDS011;2186;49.866;7.986;2022-08-20T08:21:13;0.70;;;0.40;;
4345;SDS011;2186;49.866;7.986;2022-08-20T08:23:41;0.60;;;0.43;;
4345;SDS011;2186;49.866;7.986;2022-08-20T08:26:10;0.50;;;0.40;;
4345;SDS011;2186;49.866;7.986;2022-08-20T08:28:44;0.70;;;0.40;;
4345;SDS011;2186;49.866;7.986;2022-08-20T08:31:11;5.10;;;1.23;;
4345;SDS011;2186;49.866;7.986;2022-08-20T08:33:38;1.07;;;0.80;;
4345;SDS011;2186;49.866;7.986;2022-08-20T08:36:07;0.60;;;0.40;;
4345;SDS011;2186;49.866;7.986;2022-08-20T08:38:38;0.60;;;0.60;;
4345;SDS011;2186;49.866;7.986;2022-08-20T08:44:09;0.60;;;0.40;;
4345;SDS011;2186;49.866;7.986;2022-08-20T08:46:42;0.50;;;0.30;;
4345;SDS011;2186;49.866;7.986;2022-08-20T08:49:13;0.50;;;0.30;;
4345;SDS011;2186;49.866;7.986;2022-08-20T08:51:44;0.67;;;0.50;;
4345;SDS011;2186;49.866;7.986;2022-08-20T08:54:16;0.60;;;0.40;;
4345;SDS011;2186;49.866;7.986;2022-08-20T08:56:47;0.67;;;0.43;;
4345;SDS011;2186;49.866;7.986;2022-08-20T08:59:15;1.03;;;0.50;;
4345;SDS011;2186;49.866;7.986;2022-08-20T09:01:44;0.63;;;0.40;;
4345;SDS011;2186;49.866;7.986;2022-08-20T09:04:22;0.60;;;0.30;;
4345;SDS011;2186;49.866;7.986;2022-08-20T09:06:55;0.50;;;0.30;;
4345;SDS011;2186;49.866;7.986;2022-08-20T09:09:27;7.73;;;0.40;;
4345;SDS011;2186;49.866;7.986;2022-08-20T09:12:02;0.60;;;0.43;;
4345;SDS011;2186;49.866;7.986;2022-08-20T09:14:35;0.50;;;0.30;;
4345;SDS011;2186;49.866;7.986;2022-08-20T09:17:02;6.13;;;0.57;;
4345;SDS011;2186;49.866;7.986;2022-08-20T09:19:29;0.50;;;0.30;;
4345;SDS011;2186;49.866;7.986;2022-08-20T09:21:56;0.50;;;0.30;;
4345;SDS011;2186;49.866;7.986;2022-08-20T09:24:23;0.50;;;0.40;;
4345;SDS011;2186;49.866;7.986;2022-08-20T09:26:50;0.60;;;0.40;;
4345;SDS011;2186;49.866;7.986;2022-08-20T09:29:16;0.60;;;0.47;;
4345;SDS011;2186;49.866;7.986;2022-08-20T09:31:43;3.17;;;0.40;;
4345;SDS011;2186;49.866;7.986;2022-08-20T09:34:10;0.57;;;0.40;;
4345;SDS011;2186;49.866;7.986;2022-08-20T09:36:36;0.50;;;0.30;;
4345;SDS011;2186;49.866;7.986;2022-08-20T09:39:03;0.50;;;0.40;;
4345;SDS011;2186;49.866;7.986;2022-08-20T09:41:29;0.60;;;0.30;;
4345;SDS011;2186;49.866;7.986;2022-08-20T09:43:59;0.60;;;0.40;;
4345;SDS011;2186;49.866;7.986;2022-08-20T09:46:26;0.70;;;0.40;;
4345;SDS011;2186;49.866;7.986;2022-08-20T09:48:53;0.50;;;0.30;;
4345;SDS011;2186;49.866;7.986;2022-08-20T09:51:19;0.60;;;0.30;;
4345;SDS011;2186;49.866;7.986;2022-08-20T09:53:47;0.57;;;0.43;;
4345;SDS011;2186;49.866;7.986;2022-08-20T09:56:14;0.80;;;0.30;;
4345;SDS011;2186;49.866;7.986;2022-08-20T09:58:48;0.80;;;0.30;;
4345;SDS011;2186;49.866;7.986;2022-08-20T10:01:17;0.60;;;0.40;;
4345;SDS011;2186;49.866;7.986;2022-08-20T10:03:45;0.60;;;0.30;;
4345;SDS011;2186;49.866;7.986;2022-08-20T10:06:14;0.90;;;0.40;;
4345;SDS011;2186;49.866;7.986;2022-08-20T10:08:42;0.60;;;0.40;;
4345;SDS011;2186;49.866;7.986;2022-08-20T10:11:09;0.50;;;0.40;;
4345;SDS011;2186;49.866;7.986;2022-08-20T10:13:35;0.50;;;0.30;;
4345;SDS011;2186;49.866;7.986;2022-08-20T10:16:02;0.50;;;0.30;;
4345;SDS011;2186;49.866;7.986;2022-08-20T10:18:29;0.60;;;0.40;;
4345;SDS011;2186;49.866;7.986;2022-08-20T10:20:55;0.50;;;0.30;;
4345;SDS011;2186;49.866;7.986;2022-08-20T10:23:22;0.50;;;0.30;;
4345;SDS011;2186;49.866;7.986;2022-08-20T10:25:48;0.50;;;0.30;;
4345;SDS011;2186;49.866;7.986;2022-08-20T10:28:14;0.50;;;0.40;;
4345;SDS011;2186;49.866;7.986;2022-08-20T10:30:41;1.83;;;0.50;;
4345;SDS011;2186;49.866;7.986;2022-08-20T10:33:10;0.50;;;0.30;;
4345;SDS011;2186;49.866;7.986;2022-08-20T10:35:36;0.50;;;0.30;;
4345;SDS011;2186;49.866;7.986;2022-08-20T10:38:02;4.30;;;0.40;;
4345;SDS011;2186;49.866;7.986;2022-08-20T10:40:29;0.50;;;0.30;;
4345;SDS011;2186;49.866;7.986;2022-08-20T10:42:55;0.50;;;0.30;;
4345;SDS011;2186;49.866;7.986;2022-08-20T10:45:22;0.50;;;0.40;;
4345;SDS011;2186;49.866;7.986;2022-08-20T10:47:50;0.60;;;0.30;;
4345;SDS011;2186;49.866;7.986;2022-08-20T10:50:17;3.20;;;0.70;;
4345;SDS011;2186;49.866;7.986;2022-08-20T10:52:45;0.60;;;0.40;;
4345;SDS011;2186;49.866;7.986;2022-08-20T10:55:12;0.50;;;0.30;;
4345;SDS011;2186;49.866;7.986;2022-08-20T10:57:39;0.50;;;0.30;;
4345;SDS011;2186;49.866;7.986;2022-08-20T11:00:09;0.63;;;0.50;;
4345;SDS011;2186;49.866;7.986;2022-08-20T11:02:38;1.73;;;0.33;;
4345;SDS011;2186;49.866;7.986;2022-08-20T11:05:06;0.90;;;0.40;;
4345;SDS011;2186;49.866;7.986;2022-08-20T11:07:34;0.60;;;0.40;;
4345;SDS011;2186;49.866;7.986;2022-08-20T11:10:22;0.50;;;0.30;;
4345;SDS011;2186;49.866;7.986;2022-08-20T11:12:50;0.60;;;0.40;;
4345;SDS011;2186;49.866;7.986;2022-08-20T11:15:17;0.50;;;0.40;;
4345;SDS011;2186;49.866;7.986;2022-08-20T11:17:43;0.60;;;0.40;;
4345;SDS011;2186;49.866;7.986;2022-08-20T11:20:11;0.60;;;0.40;;
4345;SDS011;2186;49.866;7.986;2022-08-20T11:22:39;0.50;;;0.30;;
4345;SDS011;2186;49.866;7.986;2022-08-20T11:25:06;0.60;;;0.60;;
4345;SDS011;2186;49.866;7.986;2022-08-20T11:27:34;0.60;;;0.50;;
4345;SDS011;2186;49.866;7.986;2022-08-20T11:30:05;0.73;;;0.50;;
4345;SDS011;2186;49.866;7.986;2022-08-20T11:32:33;0.60;;;0.50;;
4345;SDS011;2186;49.866;7.986;2022-08-20T11:34:59;0.80;;;0.70;;
4345;SDS011;2186;49.866;7.986;2022-08-20T11:37:39;3.37;;;0.40;;
4345;SDS011;2186;49.866;7.986;2022-08-20T11:40:06;1.90;;;0.63;;
4345;SDS011;2186;49.866;7.986;2022-08-20T11:42:34;3.90;;;0.73;;
4345;SDS011;2186;49.866;7.986;2022-08-20T11:45:06;0.57;;;0.40;;
4345;SDS011;2186;49.866;7.986;2022-08-20T11:47:34;3.50;;;0.70;;
4345;SDS011;2186;49.866;7.986;2022-08-20T11:50:03;0.60;;;0.40;;
4345;SDS011;2186;49.866;7.986;2022-08-20T11:52:30;0.67;;;0.40;;
4345;SDS011;2186;49.866;7.986;2022-08-20T11:54:57;0.80;;;0.53;;
4345;SDS011;2186;49.866;7.986;2022-08-20T11:57:25;0.60;;;0.40;;
4345;SDS011;2186;49.866;7.986;2022-08-20T11:59:54;0.70;;;0.47;;
4345;SDS011;2186;49.866;7.986;2022-08-20T12:02:22;1.00;;;0.60;;
4345;SDS011;2186;49.866;7.986;2022-08-20T12:04:53;0.60;;;0.40;;
4345;SDS011;2186;49.866;7.986;2022-08-20T12:07:21;0.60;;;0.40;;
4345;SDS011;2186;49.866;7.986;2022-08-20T12:09:49;0.60;;;0.50;;
4345;SDS011;2186;49.866;7.986;2022-08-20T12:12:16;0.93;;;0.83;;
4345;SDS011;2186;49.866;7.986;2022-08-20T12:14:45;2.17;;;0.43;;
4345;SDS011;2186;49.866;7.986;2022-08-20T12:19:40;0.70;;;0.40;;
4345;SDS011;2186;49.866;7.986;2022-08-20T12:22:08;0.77;;;0.53;;
4345;SDS011;2186;49.866;7.986;2022-08-20T12:24:50;6.43;;;1.40;;
4345;SDS011;2186;49.866;7.986;2022-08-20T12:27:23;2.63;;;0.70;;
4345;SDS011;2186;49.866;7.986;2022-08-20T12:29:52;4.57;;;1.30;;
4345;SDS011;2186;49.866;7.986;2022-08-20T12:32:21;0.57;;;0.40;;
4345;SDS011;2186;49.866;7.986;2022-08-20T12:34:49;2.20;;;0.70;;
4345;SDS011;2186;49.866;7.986;2022-08-20T12:37:19;0.80;;;0.73;;
4345;SDS011;2186;49.866;7.986;2022-08-20T12:39:49;0.80;;;0.63;;
4345;SDS011;2186;49.866;7.986;2022-08-20T12:42:18;0.50;;;0.40;;
4345;SDS011;2186;49.866;7.986;2022-08-20T12:44:45;0.60;;;0.47;;
4345;SDS011;2186;49.866;7.986;2022-08-20T12:49:50;0.50;;;0.40;;
4345;SDS011;2186;49.866;7.986;2022-08-20T12:52:21;0.80;;;0.40;;
4345;SDS011;2186;49.866;7.986;2022-08-20T12:54:49;1.10;;;0.40;;
4345;SDS011;2186;49.866;7.986;2022-08-20T12:57:24;1.43;;;0.83;;
4345;SDS011;2186;49.866;7.986;2022-08-20T12:59:51;9.73;;;0.50;;
4345;SDS011;2186;49.866;7.986;2022-08-20T13:02:18;6.47;;;0.70;;
4345;SDS011;2186;49.866;7.986;2022-08-20T13:04:44;1.70;;;1.13;;
4345;SDS011;2186;49.866;7.986;2022-08-20T13:07:11;7.50;;;0.70;;
4345;SDS011;2186;49.866;7.986;2022-08-20T13:09:38;0.60;;;0.40;;
4345;SDS011;2186;49.866;7.986;2022-08-20T13:12:05;0.87;;;0.40;;
4345;SDS011;2186;49.866;7.986;2022-08-20T13:14:33;1.37;;;0.50;;
4345;SDS011;2186;49.866;7.986;2022-08-20T13:17:00;0.60;;;0.40;;
4345;SDS011;2186;49.866;7.986;2022-08-20T13:19:28;1.33;;;0.40;;
4345;SDS011;2186;49.866;7.986;2022-08-20T13:21:56;0.50;;;0.47;;
4345;SDS011;2186;49.866;7.986;2022-08-20T13:24:22;0.63;;;0.40;;
4345;SDS011;2186;49.866;7.986;2022-08-20T13:26:49;7.50;;;0.60;;
4345;SDS011;2186;49.866;7.986;2022-08-20T13:29:16;0.60;;;0.50;;
4345;SDS011;2186;49.866;7.986;2022-08-20T13:31:43;0.50;;;0.40;;
4345;SDS011;2186;49.866;7.986;2022-08-20T13:34:10;0.90;;;0.60;;
4345;SDS011;2186;49.866;7.986;2022-08-20T13:36:37;1.00;;;0.60;;
4345;SDS011;2186;49.866;7.986;2022-08-20T13:39:04;2.30;;;0.80;;
4345;SDS011;2186;49.866;7.986;2022-08-20T13:41:32;0.97;;;0.70;;
4345;SDS011;2186;49.866;7.986;2022-08-20T13:43:58;1.07;;;0.50;;
4345;SDS011;2186;49.866;7.986;2022-08-20T13:46:25;0.93;;;0.47;;
4345;SDS011;2186;49.866;7.986;2022-08-20T13:48:51;0.80;;;0.50;;
4345;SDS011;2186;49.866;7.986;2022-08-20T13:51:17;0.80;;;0.77;;
4345;SDS011;2186;49.866;7.986;2022-08-20T13:53:46;0.90;;;0.53;;
4345;SDS011;2186;49.866;7.986;2022-08-20T13:56:13;0.67;;;0.50;;
4345;SDS011;2186;49.866;7.986;2022-08-20T13:58:39;0.80;;;0.50;;
4345;SDS011;2186;49.866;7.986;2022-08-20T14:01:06;1.33;;;0.50;;
4345;SDS011;2186;49.866;7.986;2022-08-20T14:03:32;0.60;;;0.40;;
4345;SDS011;2186;49.866;7.986;2022-08-20T14:06:00;0.93;;;0.70;;
4345;SDS011;2186;49.866;7.986;2022-08-20T14:08:28;3.70;;;0.50;;
4345;SDS011;2186;49.866;7.986;2022-08-20T14:10:54;1.53;;;0.57;;
4345;SDS011;2186;49.866;7.986;2022-08-20T14:13:22;1.20;;;0.40;;
4345;SDS011;2186;49.866;7.986;2022-08-20T14:15:50;0.70;;;0.70;;
4345;SDS011;2186;49.866;7.986;2022-08-20T14:18:17;5.00;;;1.17;;
4345;SDS011;2186;49.866;7.986;2022-08-20T14:20:45;0.70;;;0.60;;
4345;SDS011;2186;49.866;7.986;2022-08-20T14:23:12;1.27;;;0.60;;
4345;SDS011;2186;49.866;7.986;2022-08-20T14:25:39;1.57;;;0.80;;
4345;SDS011;2186;49.866;7.986;2022-08-20T14:28:19;0.70;;;0.50;;
4345;SDS011;2186;49.866;7.986;2022-08-20T14:30:47;0.63;;;0.50;;
4345;SDS011;2186;49.866;7.986;2022-08-20T14:33:18;0.70;;;0.60;;
4345;SDS011;2186;49.866;7.986;2022-08-20T14:35:44;0.80;;;0.50;;
4345;SDS011;2186;49.866;7.986;2022-08-20T14:38:11;0.60;;;0.40;;
4345;SDS011;2186;49.866;7.986;2022-08-20T14:40:37;0.73;;;0.70;;
4345;SDS011;2186;49.866;7.986;2022-08-20T14:43:04;0.70;;;0.50;;
4345;SDS011;2186;49.866;7.986;2022-08-20T14:45:30;0.60;;;0.50;;
4345;SDS011;2186;49.866;7.986;2022-08-20T14:47:57;8.70;;;1.10;;
4345;SDS011;2186;49.866;7.986;2022-08-20T14:50:28;1.00;;;0.70;;
4345;SDS011;2186;49.866;7.986;2022-08-20T14:52:57;0.80;;;0.50;;
4345;SDS011;2186;49.866;7.986;2022-08-20T14:55:30;1.17;;;0.47;;
4345;SDS011;2186;49.866;7.986;2022-08-20T14:57:58;0.70;;;0.50;;
4345;SDS011;2186;49.866;7.986;2022-08-20T15:00:26;0.83;;;0.60;;
4345;SDS011;2186;49.866;7.986;2022-08-20T15:02:55;3.17;;;0.70;;
4345;SDS011;2186;49.866;7.986;2022-08-20T15:05:23;0.70;;;0.43;;
4345;SDS011;2186;49.866;7.986;2022-08-20T15:07:49;0.60;;;0.50;;
4345;SDS011;2186;49.866;7.986;2022-08-20T15:10:23;0.80;;;0.50;;
4345;SDS011;2186;49.866;7.986;2022-08-20T15:12:52;0.67;;;0.50;;
4345;SDS011;2186;49.866;7.986;2022-08-20T15:15:20;1.13;;;1.03;;
4345;SDS011;2186;49.866;7.986;2022-08-20T15:17:48;1.10;;;0.83;;
4345;SDS011;2186;49.866;7.986;2022-08-20T15:20:18;0.80;;;0.67;;
4345;SDS011;2186;49.866;7.986;2022-08-20T15:22:46;0.70;;;0.50;;
4345;SDS011;2186;49.866;7.986;2022-08-20T15:25:15;2.40;;;1.10;;
4345;SDS011;2186;49.866;7.986;2022-08-20T15:27:43;0.83;;;0.47;;
4345;SDS011;2186;49.866;7.986;2022-08-20T15:30:11;0.50;;;0.40;;
4345;SDS011;2186;49.866;7.986;2022-08-20T15:32:39;2.70;;;0.50;;
4345;SDS011;2186;49.866;7.986;2022-08-20T15:35:06;1.10;;;0.70;;